createdAt,value
2018-09-14T00:00:54.528Z,77.77
2018-09-14T00:03:22.115Z,77.13
2018-09-14T00:05:52.681Z,77.60
2018-09-14T00:08:21.885Z,78.00
2018-09-14T00:10:49.492Z,77.69
2018-09-14T00:13:17.835Z,77.68
2018-09-14T00:15:45.582Z,77.50
2018-09-14T00:18:13.418Z,77.61
2018-09-14T00:20:41.001Z,77.02
2018-09-14T00:23:08.572Z,76.95
2018-09-14T00:25:36.193Z,77.67
2018-09-14T00:28:04.195Z,77.08
2018-09-14T00:30:31.780Z,76.73
2018-09-14T00:32:59.366Z,77.22
2018-09-14T00:35:26.916Z,77.50
2018-09-14T00:37:54.889Z,77.15
2018-09-14T00:40:22.444Z,76.93
2018-09-14T00:42:50.004Z,77.18
2018-09-14T00:45:18.498Z,77.42
2018-09-14T00:47:46.507Z,77.84
2018-09-14T00:50:14.132Z,77.25
2018-09-14T00:52:41.663Z,77.36
2018-09-14T00:55:09.674Z,77.25
2018-09-14T00:57:37.200Z,77.13
2018-09-14T01:00:05.375Z,77.82
2018-09-14T01:02:32.962Z,77.41
2018-09-14T01:05:00.883Z,77.52
2018-09-14T01:07:28.454Z,77.06
2018-09-14T01:09:56.006Z,77.40
2018-09-14T01:12:23.515Z,77.63
2018-09-14T01:14:51.557Z,77.63
2018-09-14T01:17:19.116Z,77.71
2018-09-14T01:19:46.682Z,77.61
2018-09-14T01:22:14.219Z,77.94
2018-09-14T01:24:41.811Z,77.50
2018-09-14T01:27:09.371Z,77.95
2018-09-14T01:29:36.854Z,77.82
2018-09-14T01:32:05.488Z,77.68
2018-09-14T01:34:32.995Z,77.67
2018-09-14T01:37:00.531Z,77.97
2018-09-14T01:39:28.026Z,78.02
2018-09-14T01:41:55.823Z,77.34
2018-09-14T01:44:23.314Z,77.23
2018-09-14T01:46:50.871Z,77.31
2018-09-14T01:49:18.432Z,77.52
2018-09-14T01:51:46.427Z,78.05
2018-09-14T01:54:14.047Z,77.49
2018-09-14T01:56:41.683Z,77.71
2018-09-14T01:59:09.548Z,77.51
2018-09-14T02:01:37.299Z,77.07
2018-09-14T02:04:06.064Z,77.10
2018-09-14T02:06:33.712Z,77.44
2018-09-14T02:09:01.595Z,77.25
2018-09-14T02:11:29.110Z,77.08
2018-09-14T02:13:56.723Z,76.92
2018-09-14T02:16:24.231Z,77.33
2018-09-14T02:18:52.088Z,77.24
2018-09-14T02:21:19.611Z,76.93
2018-09-14T02:23:47.135Z,77.67
2018-09-14T02:26:14.990Z,77.23
2018-09-14T02:28:42.554Z,77.47
2018-09-14T02:31:10.109Z,77.53
2018-09-14T02:33:37.636Z,77.49
2018-09-14T02:36:05.562Z,77.25
2018-09-14T02:38:33.067Z,76.97
2018-09-14T02:41:00.574Z,77.42
2018-09-14T02:43:28.435Z,77.18
2018-09-14T02:45:55.991Z,77.61
2018-09-14T02:48:23.596Z,77.31
2018-09-14T02:50:51.115Z,77.61
2018-09-14T02:53:19.005Z,78.13
2018-09-14T02:55:46.582Z,78.43
2018-09-14T02:58:14.093Z,78.12
2018-09-14T03:00:43.835Z,78.34
2018-09-14T03:03:11.345Z,77.96
2018-09-14T03:05:39.433Z,78.37
2018-09-14T03:08:08.002Z,78.30
2018-09-14T03:10:35.875Z,78.05
2018-09-14T03:13:03.444Z,78.40
2018-09-14T03:15:30.978Z,78.19
2018-09-14T03:17:58.505Z,78.32
2018-09-14T03:20:26.540Z,78.67
2018-09-14T03:22:54.101Z,78.27
2018-09-14T03:25:21.622Z,78.59
2018-09-14T03:27:50.413Z,78.97
2018-09-14T03:30:18.196Z,78.83
2018-09-14T03:32:46.355Z,78.90
2018-09-14T03:35:13.905Z,78.74
2018-09-14T03:37:41.809Z,79.17
2018-09-14T03:40:09.334Z,79.25
2018-09-14T03:42:36.898Z,78.74
2018-09-14T03:45:05.542Z,79.00
2018-09-14T03:47:33.051Z,79.25
2018-09-14T03:50:00.615Z,79.01
2018-09-14T03:52:28.543Z,78.66
2018-09-14T03:54:56.056Z,78.52
2018-09-14T03:57:23.671Z,78.70
2018-09-14T03:59:51.613Z,78.83
2018-09-14T04:02:20.887Z,78.70
2018-09-14T04:04:48.944Z,77.82
2018-09-14T04:07:16.797Z,78.85
2018-09-14T04:09:44.327Z,78.66
2018-09-14T04:12:11.805Z,78.47
2018-09-14T04:14:39.809Z,78.90
2018-09-14T04:17:07.311Z,78.73
2018-09-14T04:19:34.800Z,78.27
2018-09-14T04:22:02.809Z,78.72
2018-09-14T04:24:32.174Z,78.75
2018-09-14T04:26:59.671Z,78.43
2018-09-14T04:29:27.630Z,78.43
2018-09-14T04:31:55.170Z,77.93
2018-09-14T04:34:22.670Z,78.07
2018-09-14T04:36:50.618Z,78.32
2018-09-14T04:39:18.136Z,78.46
2018-09-14T04:41:45.648Z,78.41
2018-09-14T04:44:13.584Z,77.76
2018-09-14T04:46:41.121Z,77.59
2018-09-14T04:49:08.692Z,78.08
2018-09-14T04:51:36.568Z,77.73
2018-09-14T04:54:05.440Z,78.16
2018-09-14T04:56:32.999Z,77.90
2018-09-14T04:59:00.995Z,78.11
2018-09-14T05:01:28.523Z,77.98
2018-09-14T05:03:56.049Z,77.48
2018-09-14T05:06:24.272Z,77.43
2018-09-14T05:08:51.833Z,77.54
2018-09-14T05:11:19.339Z,77.63
2018-09-14T05:13:47.325Z,78.09
2018-09-14T05:16:15.907Z,77.26
2018-09-14T05:18:44.152Z,77.91
2018-09-14T05:21:12.202Z,77.39
2018-09-14T05:23:39.759Z,77.93
2018-09-14T05:26:07.263Z,77.00
2018-09-14T05:28:35.599Z,77.04
2018-09-14T05:31:03.169Z,77.59
2018-09-14T05:33:30.748Z,77.39
2018-09-14T05:35:58.605Z,77.27
2018-09-14T05:38:26.983Z,76.95
2018-09-14T05:40:56.612Z,77.24
2018-09-14T05:43:24.583Z,77.50
2018-09-14T05:45:52.469Z,77.58
2018-09-14T05:48:19.786Z,77.62
2018-09-14T05:50:47.644Z,77.36
2018-09-14T05:53:16.322Z,77.13
2018-09-14T05:55:44.508Z,77.17
2018-09-14T05:58:13.500Z,77.24
2018-09-14T06:00:41.154Z,76.61
2018-09-14T06:03:08.695Z,76.84
2018-09-14T06:05:37.199Z,77.37
2018-09-14T06:08:04.705Z,76.83
2018-09-14T06:10:37.912Z,76.57
2018-09-14T06:13:05.789Z,76.09
2018-09-14T06:15:33.290Z,76.63
2018-09-14T06:18:00.816Z,76.36
2018-09-14T06:20:28.710Z,76.86
2018-09-14T06:22:56.342Z,76.71
2018-09-14T06:25:23.791Z,76.63
2018-09-14T06:27:51.667Z,76.06
2018-09-14T06:30:19.242Z,76.28
2018-09-14T06:32:46.740Z,76.30
2018-09-14T06:35:14.568Z,75.93
2018-09-14T06:37:42.073Z,76.41
2018-09-14T06:40:10.403Z,75.97
2018-09-14T06:42:38.423Z,75.55
2018-09-14T06:45:06.668Z,75.54
2018-09-14T06:47:34.444Z,75.67
2018-09-14T06:50:02.537Z,75.26
2018-09-14T06:52:30.129Z,75.01
2018-09-14T06:54:58.543Z,75.13
2018-09-14T06:57:26.453Z,75.36
2018-09-14T06:59:53.930Z,75.37
2018-09-14T07:02:21.588Z,75.64
2018-09-14T07:04:49.467Z,75.49
2018-09-14T07:07:17.013Z,75.00
2018-09-14T07:09:44.500Z,74.08
2018-09-14T07:12:12.599Z,74.36
2018-09-14T07:14:40.084Z,74.21
2018-09-14T07:17:11.168Z,73.71
2018-09-14T07:19:39.035Z,73.87
2018-09-14T07:22:06.564Z,73.54
2018-09-14T07:24:34.121Z,74.44
2018-09-14T07:27:03.189Z,73.94
2018-09-14T07:29:32.403Z,74.06
2018-09-14T07:31:59.952Z,73.89
2018-09-14T07:34:27.811Z,73.79
2018-09-14T07:36:55.663Z,73.92
2018-09-14T07:39:23.165Z,73.63
2018-09-14T07:41:52.388Z,73.23
2018-09-14T07:44:19.912Z,72.86
2018-09-14T07:46:47.564Z,73.06
2018-09-14T07:49:15.428Z,72.72
2018-09-14T07:51:44.301Z,72.10
2018-09-14T07:54:12.415Z,72.00
2018-09-14T07:56:40.003Z,71.89
2018-09-14T07:59:07.851Z,72.21
2018-09-14T08:01:38.859Z,71.34
2018-09-14T08:04:06.527Z,71.08
2018-09-14T08:06:34.089Z,71.12
2018-09-14T08:09:02.099Z,70.37
2018-09-14T08:11:29.640Z,70.03
2018-09-14T08:13:57.195Z,70.25
2018-09-14T08:16:27.235Z,69.66
2018-09-14T08:18:54.750Z,69.74
2018-09-14T08:21:22.343Z,68.81
2018-09-14T08:23:50.577Z,68.29
2018-09-14T08:26:21.635Z,68.54
2018-09-14T08:28:51.218Z,67.89
2018-09-14T08:31:20.464Z,67.90
2018-09-14T08:33:48.563Z,67.74
2018-09-14T08:36:16.094Z,67.22
2018-09-14T08:38:43.956Z,67.18
2018-09-14T08:41:13.107Z,67.16
2018-09-14T08:43:40.720Z,66.72
2018-09-14T08:46:08.599Z,66.96
2018-09-14T08:48:36.244Z,65.97
2018-09-14T08:51:03.858Z,65.82
2018-09-14T08:53:31.809Z,66.46
2018-09-14T08:55:59.407Z,66.22
2018-09-14T08:58:26.926Z,65.94
2018-09-14T09:00:56.225Z,65.18
2018-09-14T09:03:24.820Z,65.73
2018-09-14T09:05:52.323Z,64.82
2018-09-14T09:08:20.869Z,64.61
2018-09-14T09:10:48.451Z,64.46
2018-09-14T09:13:16.611Z,63.96
2018-09-14T09:15:44.611Z,63.58
2018-09-14T09:18:13.294Z,63.56
2018-09-14T09:20:40.879Z,63.47
2018-09-14T09:23:10.021Z,62.82
2018-09-14T09:25:37.680Z,62.21
2018-09-14T09:28:05.237Z,61.81
2018-09-14T09:30:33.381Z,60.66
2018-09-14T09:33:02.107Z,61.37
2018-09-14T09:35:29.620Z,61.12
2018-09-14T09:37:58.625Z,62.59
2018-09-14T09:40:27.458Z,62.97
2018-09-14T09:42:55.024Z,63.46
2018-09-14T09:45:24.317Z,62.77
2018-09-14T09:47:51.871Z,61.88
2018-09-14T09:50:20.537Z,62.36
2018-09-14T09:52:48.485Z,62.55
2018-09-14T09:55:16.809Z,61.25
2018-09-14T09:57:44.772Z,61.44
2018-09-14T10:00:18.570Z,61.47
2018-09-14T10:02:51.273Z,61.93
2018-09-14T10:05:27.360Z,62.25
2018-09-14T10:07:55.359Z,63.18
2018-09-14T10:10:24.079Z,62.91
2018-09-14T10:12:51.623Z,63.44
2018-09-14T10:15:22.927Z,62.99
2018-09-14T10:17:51.522Z,62.90
2018-09-14T10:20:20.652Z,61.09
2018-09-14T10:22:49.164Z,60.44
2018-09-14T10:25:16.696Z,58.62
2018-09-14T10:27:44.267Z,57.77
2018-09-14T10:30:12.151Z,55.13
2018-09-14T10:32:42.731Z,54.05
2018-09-14T10:35:10.409Z,52.21
2018-09-14T10:37:38.415Z,51.04
2018-09-14T10:40:06.863Z,50.93
2018-09-14T10:42:35.398Z,52.29
2018-09-14T10:45:05.360Z,52.95
2018-09-14T10:47:32.908Z,50.87
2018-09-14T10:50:00.552Z,50.81
2018-09-14T10:52:31.341Z,51.10
2018-09-14T10:54:58.940Z,53.40
2018-09-14T10:57:26.628Z,55.12
2018-09-14T10:59:54.636Z,54.74
2018-09-14T11:02:22.468Z,52.95
2018-09-14T11:04:51.365Z,50.25
2018-09-14T11:07:21.326Z,48.70
2018-09-14T11:09:49.765Z,45.82
2018-09-14T11:12:20.528Z,46.37
2018-09-14T11:14:49.026Z,48.20
2018-09-14T11:17:16.609Z,48.36
2018-09-14T11:19:46.785Z,49.81
2018-09-14T11:22:15.700Z,48.64
2018-09-14T11:24:46.498Z,47.00
2018-09-14T11:27:13.958Z,48.21
2018-09-14T11:29:41.857Z,50.46
2018-09-14T11:32:13.195Z,50.25
2018-09-14T11:34:41.737Z,48.59
2018-09-14T11:37:09.700Z,47.21
2018-09-14T11:39:38.249Z,45.92
2018-09-14T11:42:05.798Z,45.17
2018-09-14T11:44:34.495Z,44.38
2018-09-14T11:47:02.034Z,44.08
2018-09-14T11:49:29.555Z,42.67
2018-09-14T11:51:57.571Z,44.10
2018-09-14T11:54:27.365Z,45.02
2018-09-14T11:56:54.938Z,43.87
2018-09-14T11:59:25.390Z,43.76
2018-09-14T12:01:53.551Z,44.82
2018-09-14T12:04:21.116Z,44.49
2018-09-14T12:06:49.539Z,42.06
2018-09-14T12:09:17.841Z,41.15
2018-09-14T12:11:47.203Z,40.99
2018-09-14T12:14:17.031Z,39.13
2018-09-14T12:16:45.328Z,38.32
2018-09-14T12:19:14.176Z,39.64
2018-09-14T12:21:43.136Z,43.22
2018-09-14T12:24:12.374Z,44.39
2018-09-14T12:26:41.450Z,43.71
2018-09-14T12:29:10.403Z,42.89
2018-09-14T12:31:37.923Z,40.89
2018-09-14T12:34:05.423Z,41.53
2018-09-14T12:36:33.396Z,44.42
2018-09-14T12:39:01.892Z,45.84
2018-09-14T12:41:32.085Z,47.31
2018-09-14T12:44:00.645Z,49.02
2018-09-14T12:46:31.391Z,49.44
2018-09-14T12:49:00.150Z,49.55
2018-09-14T12:51:29.140Z,50.28
2018-09-14T12:53:57.756Z,50.35
2018-09-14T12:58:53.863Z,49.03
2018-09-14T13:01:22.826Z,49.05
2018-09-14T13:03:50.327Z,48.72
2018-09-14T13:06:19.207Z,49.25
2018-09-14T13:08:47.706Z,49.41
2018-09-14T13:11:15.835Z,48.77
2018-09-14T13:13:44.802Z,48.50
2018-09-14T13:16:12.730Z,48.82
2018-09-14T13:18:41.582Z,48.89
2018-09-14T13:21:09.913Z,48.01
2018-09-14T13:23:37.446Z,47.84
2018-09-14T13:26:04.968Z,47.25
2018-09-14T13:28:32.520Z,47.68
2018-09-14T13:31:01.307Z,47.89
2018-09-14T13:33:29.138Z,47.51
2018-09-14T13:35:56.638Z,47.67
2018-09-14T13:38:24.159Z,47.49
2018-09-14T13:40:53.374Z,47.13
2018-09-14T13:43:20.912Z,46.49
2018-09-14T13:45:48.415Z,47.10
2018-09-14T13:48:16.946Z,48.08
2018-09-14T13:50:49.106Z,48.10
2018-09-14T13:53:16.603Z,48.46
2018-09-14T13:55:44.583Z,49.01
2018-09-14T13:58:12.176Z,48.68
2018-09-14T14:00:39.708Z,48.79
2018-09-14T14:03:10.563Z,48.49
2018-09-14T14:08:22.109Z,49.20
2018-09-14T14:10:50.538Z,49.45
2018-09-14T14:13:19.072Z,48.99
2018-09-14T14:15:48.761Z,49.13
2018-09-14T14:18:16.298Z,48.88
2018-09-14T14:20:44.592Z,48.70
2018-09-14T14:23:13.332Z,48.90
2018-09-14T14:25:40.838Z,47.88
2018-09-14T14:28:08.407Z,47.05
2018-09-14T14:30:36.682Z,47.98
2018-09-14T14:33:05.865Z,48.20
2018-09-14T14:35:33.365Z,47.75
2018-09-14T14:38:02.899Z,48.67
2018-09-14T14:40:30.445Z,48.82
2018-09-14T14:42:57.976Z,48.06
2018-09-14T14:45:25.973Z,48.26
2018-09-14T14:47:53.714Z,48.25
2018-09-14T14:50:22.215Z,48.09
2018-09-14T14:52:50.059Z,47.87
2018-09-14T14:55:17.582Z,48.13
2018-09-14T14:57:45.250Z,48.32
2018-09-14T15:00:13.115Z,48.74
2018-09-14T15:02:41.149Z,48.62
2018-09-14T15:05:08.687Z,48.79
2018-09-14T15:07:37.145Z,49.76
2018-09-14T15:10:05.895Z,48.64
2018-09-14T15:12:34.340Z,48.00
2018-09-14T15:15:02.308Z,47.72
2018-09-14T15:17:29.883Z,47.31
2018-09-14T15:19:57.394Z,46.30
2018-09-14T15:22:25.974Z,46.16
2018-09-14T15:24:54.613Z,46.21
2018-09-14T15:27:22.154Z,47.14
2018-09-14T15:29:51.675Z,48.11
2018-09-14T15:32:19.333Z,48.82
2018-09-14T15:34:46.821Z,48.46
2018-09-14T15:37:14.600Z,47.42
2018-09-14T15:39:42.152Z,47.64
2018-09-14T15:42:09.666Z,46.66
2018-09-14T15:44:39.245Z,45.78
2018-09-14T15:47:07.435Z,47.00
2018-09-14T15:49:35.726Z,47.00
2018-09-14T15:52:03.719Z,46.68
2018-09-14T15:54:31.235Z,46.79
2018-09-14T15:56:59.279Z,46.92
2018-09-14T15:59:27.260Z,47.71
2018-09-14T16:01:56.491Z,47.37
2018-09-14T16:04:25.144Z,48.54
2018-09-14T16:06:53.092Z,48.64
2018-09-14T16:09:21.375Z,49.35
2018-09-14T16:11:49.258Z,48.73
2018-09-14T16:14:17.239Z,49.49
2018-09-14T16:16:44.743Z,49.57
2018-09-14T16:19:12.275Z,49.01
2018-09-14T16:21:40.111Z,49.60
2018-09-14T16:24:07.708Z,49.00
2018-09-14T16:26:38.431Z,49.62
2018-09-14T16:29:07.303Z,49.87
2018-09-14T16:31:35.096Z,50.52
2018-09-14T16:34:04.170Z,50.86
2018-09-14T16:36:33.407Z,50.26
2018-09-14T16:39:00.930Z,50.58
2018-09-14T16:41:30.080Z,51.18
2018-09-14T16:43:59.080Z,51.15
2018-09-14T16:46:26.688Z,50.71
2018-09-14T16:48:54.854Z,51.18
2018-09-14T16:51:23.370Z,50.67
2018-09-14T16:53:50.928Z,50.26
2018-09-14T16:56:18.866Z,50.59
2018-09-14T16:58:48.044Z,51.51
2018-09-14T17:03:50.748Z,50.61
2018-09-14T17:06:19.339Z,51.04
2018-09-14T17:08:46.933Z,51.20
2018-09-14T17:11:18.514Z,52.07
2018-09-14T17:13:46.079Z,51.56
2018-09-14T17:16:13.637Z,52.16
2018-09-14T17:18:41.546Z,51.75
2018-09-14T17:21:10.102Z,51.88
2018-09-14T17:23:38.219Z,52.48
2018-09-14T17:26:07.951Z,51.85
2018-09-14T17:28:36.300Z,52.01
2018-09-14T17:31:03.811Z,52.44
2018-09-14T17:33:33.967Z,52.03
2018-09-14T17:36:02.099Z,52.03
2018-09-14T17:38:30.419Z,52.20
2018-09-14T17:41:00.100Z,51.86
2018-09-14T17:43:27.663Z,52.33
2018-09-14T17:45:55.176Z,52.74
2018-09-14T17:48:23.891Z,53.08
2018-09-14T17:50:51.699Z,53.03
2018-09-14T17:53:20.129Z,53.18
2018-09-14T17:55:48.098Z,53.04
2018-09-14T17:58:15.579Z,52.47
2018-09-14T18:00:43.199Z,52.51
2018-09-14T18:03:11.136Z,53.18
2018-09-14T18:05:39.475Z,53.26
2018-09-14T18:10:40.862Z,52.75
2018-09-14T18:13:09.348Z,53.69
2018-09-14T18:15:37.598Z,52.90
2018-09-14T18:18:05.458Z,52.78
2018-09-14T18:20:33.304Z,53.42
2018-09-14T18:23:02.350Z,53.54
2018-09-14T18:25:31.662Z,53.23
2018-09-14T18:27:59.204Z,53.45
2018-09-14T18:30:27.237Z,53.26
2018-09-14T18:32:56.260Z,53.05
2018-09-14T18:35:24.402Z,53.98
2018-09-14T18:37:52.745Z,53.74
2018-09-14T18:40:21.215Z,53.43
2018-09-14T18:42:49.470Z,54.06
2018-09-14T18:45:17.792Z,54.13
2018-09-14T18:47:48.073Z,53.63
2018-09-14T18:50:15.711Z,54.13
2018-09-14T18:52:43.460Z,53.91
2018-09-14T18:55:14.891Z,53.93
2018-09-14T18:57:42.692Z,54.14
2018-09-14T19:00:15.756Z,54.16
2018-09-14T19:02:45.154Z,54.00
2018-09-14T19:05:13.748Z,53.98
2018-09-14T19:08:00.450Z,53.72
2018-09-14T19:10:28.566Z,54.77
2018-09-14T19:12:57.215Z,54.34
2018-09-14T19:15:24.840Z,54.53
2018-09-14T19:17:52.819Z,54.35
2018-09-14T19:20:21.646Z,54.88
2018-09-14T19:22:49.845Z,54.44
2018-09-14T19:25:19.292Z,54.53
2018-09-14T19:27:48.120Z,54.11
2018-09-14T19:30:16.540Z,54.58
2018-09-14T19:32:49.203Z,54.02
2018-09-14T19:35:16.824Z,54.20
2018-09-14T19:37:45.339Z,54.12
2018-09-14T19:40:13.412Z,53.98
2018-09-14T19:42:44.562Z,53.96
2018-09-14T19:45:14.078Z,54.34
2018-09-14T19:47:45.016Z,53.96
2018-09-14T19:50:13.957Z,53.34
2018-09-14T19:52:42.239Z,53.90
2018-09-14T19:55:11.645Z,53.31
2018-09-14T19:57:39.259Z,53.37
2018-09-14T20:00:08.150Z,53.93
2018-09-14T20:02:36.625Z,54.21
2018-09-14T20:05:06.390Z,54.03
2018-09-14T20:07:34.612Z,54.39
2018-09-14T20:10:02.391Z,54.29
2018-09-14T20:12:33.562Z,54.22
2018-09-14T20:15:01.648Z,54.66
2018-09-14T20:17:31.169Z,54.45
2018-09-14T20:19:59.582Z,54.44
2018-09-14T20:22:29.892Z,54.50
2018-09-14T20:24:58.333Z,54.07
2018-09-14T20:27:26.439Z,54.88
2018-09-14T20:29:55.569Z,54.51
2018-09-14T20:32:23.416Z,55.10
2018-09-14T20:34:52.366Z,54.43
2018-09-14T20:37:21.947Z,55.33
2018-09-14T20:39:54.540Z,54.85
2018-09-14T20:42:22.719Z,54.94
2018-09-14T20:44:50.739Z,54.72
2018-09-14T20:55:16.126Z,55.30
2018-09-14T20:57:44.363Z,54.90
2018-09-14T21:00:11.962Z,55.45
2018-09-14T21:02:41.019Z,55.43
2018-09-14T21:05:10.346Z,55.35
2018-09-14T21:07:39.044Z,55.70
2018-09-14T21:10:07.906Z,55.10
2018-09-14T21:12:35.412Z,55.52
2018-09-14T21:15:03.250Z,55.47
2018-09-14T21:17:31.278Z,55.37
2018-09-14T21:20:00.020Z,55.25
2018-09-14T21:22:29.319Z,55.51
2018-09-14T21:24:58.456Z,55.07
2018-09-14T21:27:26.005Z,54.58
2018-09-14T21:29:53.567Z,54.91
2018-09-14T21:32:21.415Z,54.79
2018-09-14T21:34:50.291Z,54.99
2018-09-14T21:37:20.510Z,54.65
2018-09-14T21:39:48.465Z,55.00
2018-09-14T21:42:16.262Z,54.93
2018-09-14T21:44:45.307Z,55.19
2018-09-14T21:47:15.405Z,55.00
2018-09-14T21:49:44.090Z,55.10
2018-09-14T21:52:11.629Z,55.64
2018-09-14T21:54:40.275Z,55.76
2018-09-14T21:57:07.864Z,55.81
2018-09-14T21:59:36.606Z,55.29
2018-09-14T22:02:06.528Z,55.60
2018-09-14T22:04:34.051Z,55.44
2018-09-14T22:07:02.213Z,55.52
2018-09-14T22:09:31.802Z,55.78
2018-09-14T22:12:02.355Z,55.46
2018-09-14T22:14:31.401Z,55.64
2018-09-14T22:16:59.311Z,55.34
2018-09-14T22:19:29.275Z,55.71
2018-09-14T22:21:56.903Z,55.93
2018-09-14T22:24:26.343Z,55.39
2018-09-14T22:26:54.071Z,56.03
2018-09-14T22:29:21.650Z,55.61
2018-09-14T22:31:49.492Z,56.26
2018-09-14T22:34:17.014Z,56.08
2018-09-14T22:36:44.645Z,56.13
2018-09-14T22:39:14.526Z,56.39
2018-09-14T22:41:43.271Z,56.54
2018-09-14T22:44:10.935Z,56.62
2018-09-14T22:46:38.476Z,56.49
2018-09-14T22:49:06.481Z,56.70
2018-09-14T22:51:34.023Z,57.38
2018-09-14T22:54:01.585Z,56.94
2018-09-14T22:56:29.566Z,56.85
2018-09-14T22:58:57.172Z,57.31
2018-09-14T23:01:24.727Z,57.15
2018-09-14T23:03:52.802Z,57.62
2018-09-14T23:06:23.325Z,57.83
2018-09-14T23:08:50.838Z,57.75
2018-09-14T23:11:22.406Z,57.88
2018-09-14T23:13:50.070Z,57.41
2018-09-14T23:16:17.583Z,58.42
2018-09-14T23:18:45.560Z,58.34
2018-09-14T23:21:14.166Z,58.44
2018-09-14T23:23:41.699Z,58.55
2018-09-14T23:26:11.810Z,59.05
2018-09-14T23:28:39.285Z,59.13
2018-09-14T23:31:06.796Z,59.08
2018-09-14T23:33:34.428Z,59.53
2018-09-14T23:36:02.540Z,59.78
2018-09-14T23:38:30.037Z,59.88
2018-09-14T23:40:58.051Z,59.34
2018-09-14T23:43:26.092Z,59.75
2018-09-14T23:45:53.987Z,60.24
2018-09-14T23:48:21.561Z,60.37
2018-09-14T23:50:49.935Z,59.96
2018-09-14T23:53:17.874Z,60.25
2018-09-14T23:55:45.422Z,60.67
2018-09-14T23:58:13.187Z,60.21
